Latest Coastal Weather Observations for Dunalley

IDT60701

Issued at 11:51 pm EDT Saturday 13 February 2016 (issued every 10 minutes, with the page automatically refreshed every 10 minutes)

About coastal observations | Map of coastal stations | Coastal observations for TAS | Marine services | Other Formats
Station Details ID: 094254 Name: DUNALLEY (STROUD POINT) Lat: -42.90 Lon: 147.79 Height: 12.43 m
Data from the previous 72 hours. | See also: Recent months at Dunalley
Date/Time
EDT
Temp

°C
Wind Pressure Rain
since 9am
mm
Weather Cloud Vis
km
Sea
Height
m
Swell
Dir
 
Speed
knots
Gust
knots
hPa Trend Height
m
Period
s
Dir
13/11:30pm 18.3 SSE 8 11 1002.3 - 0.0 - - - - - - -
13/11:00pm 18.1 S 10 12 1002.7 - 0.0 - - - - - - -
13/10:30pm 18.0 S 10 13 1002.7 - 0.0 - - - - - - -
13/10:00pm 18.1 SSW 10 13 1002.7 - 0.0 - - - - - - -
13/09:30pm 17.9 SSE 9 12 1002.5 - 0.0 - - - - - - -
13/09:00pm 17.9 S 11 14 1001.8 - 0.0 - - - - - - -
13/08:30pm 17.8 SSE 15 19 1001.5 - 0.0 - - - - - - -
13/08:00pm 18.4 SSE 18 23 1000.9 - 0.0 - - - - - - -
13/07:30pm 19.0 SSE 21 26 1000.6 - 0.0 - - - - - - -
13/07:00pm 21.2 S 16 23 1000.1 - 0.0 - - - - - - -
13/06:45pm 22.7 S 15 18 999.8 - 0.0 - - - - - - -
13/06:30pm 24.5 CALM 0 2 999.8 - 0.0 - - - - - - -
13/06:00pm 24.2 SE 6 8 999.7 - 0.0 - - - - - - -
13/05:30pm 24.4 S 10 12 1000.0 - 0.0 - - - - - - -
13/05:00pm 24.6 SSE 9 13 1000.1 - 0.0 - - - - - - -
13/04:30pm 24.8 ENE 4 8 1000.4 - 0.0 - - - - - - -
13/04:00pm 24.6 ENE 10 13 1000.4 - 0.0 - - - - - - -
13/03:30pm 24.6 ENE 12 15 1000.4 - 0.0 - - - - - - -
13/03:00pm 24.5 ENE 13 16 1000.7 - 0.0 - - - - - - -
13/02:30pm 24.4 NE 16 18 1000.9 - 0.0 - - - - - - -
13/02:00pm 24.9 NE 13 16 1001.3 - 0.0 - - - - - - -
13/01:30pm 24.5 ENE 12 15 1001.9 - 0.0 - - - - - - -
13/01:00pm 24.5 NE 11 14 1002.2 - 0.0 - - - - - - -
13/12:30pm 23.8 NE 10 12 1002.8 - 0.0 - - - - - - -
13/12:00pm 23.3 NNW 5 8 1003.4 - 0.0 - - - - - - -
13/11:30am 23.2 NW 7 14 1003.8 - 0.0 - - - - - - -
13/11:00am 22.6 WNW 7 11 1004.1 - 0.0 - - - - - - -
13/10:30am 21.9 N 5 10 1004.2 - 0.0 - - - - - - -
13/10:00am 20.8 N 4 5 1004.7 - 0.0 - - - - - - -
13/09:30am 19.3 N 4 6 1005.0 - 0.0 - - - - - - -
13/09:00am 19.3 N 5 7 1004.9 - 0.2 - - - - - - -
13/08:30am 18.6 N 5 9 1004.9 - 0.2 - - - - - - -
13/08:00am 18.0 N 5 7 1005.0 - 0.2 - - - - - - -
13/07:30am 18.0 N 3 5 1005.0 - 0.2 - - - - - - -
13/07:00am 17.8 N 6 8 1004.5 - 0.2 - - - - - - -
13/06:30am 17.5 NNE 5 7 1004.2 - 0.2 - - - - - - -
13/06:00am 17.7 N 7 9 1004.1 - 0.2 - - - - - - -
13/05:30am 17.1 N 5 9 1004.4 - 0.2 - - - - - - -
13/05:00am 17.2 N 5 6 1004.8 - 0.2 - - - - - - -
13/04:30am 17.4 NNE 5 7 1005.3 - 0.2 - - - - - - -
13/04:00am 17.9 NNE 5 7 1005.1 - 0.2 - - - - - - -
13/03:30am 18.2 NNE 5 7 1005.5 - 0.2 - - - - - - -
13/03:00am 18.8 N 5 7 1006.2 - 0.2 - - - - - - -
13/02:30am 19.0 NNE 8 12 1006.6 - 0.2 - - - - - - -
13/02:00am 19.3 N 8 11 1007.0 - 0.2 - - - - - - -
13/01:30am 19.6 N 8 11 1007.3 - 0.2 - - - - - - -
13/01:00am 20.5 NNW 10 15 1007.5 - 0.2 - - - - - - -
13/12:30am 20.5 NNW 9 12 1007.7 - 0.2 - - - - - - -
13/12:00am 20.7 NNW 5 8 1008.1 - 0.2 - - - - - - -
 
Date/Time
EDT
Temp

°C
Wind Pressure Rain
since 9am
mm
Weather Cloud Vis
km
Sea
Height
m
Swell
Dir
 
Speed
knots
Gust
knots
hPa Trend Height
m
Period
s
Dir
12/11:30pm 21.1 N 7 12 1008.6 - 0.2 - - - - - - -
12/11:00pm 20.6 NNE 9 15 1008.8 - 0.2 - - - - - - -
12/10:30pm 20.3 NNE 11 17 1008.8 - 0.2 - - - - - - -
12/10:00pm 20.1 NE 17 21 1009.0 - 0.2 - - - - - - -
12/09:30pm 20.1 NNE 18 23 1009.1 - 0.2 - - - - - - -
12/09:00pm 20.3 NE 20 26 1009.3 - 0.2 - - - - - - -
12/08:30pm 20.4 NE 24 31 1009.3 - 0.2 - - - - - - -
12/08:02pm 20.5 NE 24 35 1009.6 - 0.2 - - - - - - -
12/08:00pm 20.4 NE 25 35 1009.5 - 0.2 - - - - - - -
12/07:30pm 20.7 NE 26 32 1009.5 - 0.2 - - - - - - -
12/07:00pm 21.2 NE 27 33 1009.8 - 0.2 - - - - - - -
12/06:30pm 21.4 NE 27 33 1010.0 - 0.2 - - - - - - -
12/06:00pm 21.8 NE 28 34 1010.3 - 0.2 - - - - - - -
12/05:30pm 22.0 NE 28 34 1010.5 - 0.2 - - - - - - -
12/05:00pm 22.3 NE 28 33 1010.9 - 0.2 - - - - - - -
12/04:30pm 22.4 NE 27 32 1011.4 - 0.2 - - - - - - -
12/04:00pm 22.7 NE 24 28 1012.2 - 0.2 - - - - - - -
12/03:30pm 22.6 NE 22 25 1012.9 - 0.2 - - - - - - -
12/03:00pm 22.8 NE 20 23 1013.3 - 0.2 - - - - - - -
12/02:30pm 22.7 NE 19 22 1013.8 - 0.2 - - - - - - -
12/02:00pm 22.6 NE 17 23 1014.3 - 0.2 - - - - - - -
12/01:30pm 22.2 NE 17 22 1014.7 - 0.2 - - - - - - -
12/01:00pm 22.4 NE 15 19 1015.3 - 0.2 - - - - - - -
12/12:30pm 22.1 NE 15 18 1015.9 - 0.2 - - - - - - -
12/12:00pm 22.0 NE 13 16 1016.3 - 0.2 - - - - - - -
12/11:30am 21.4 NE 8 12 1016.9 - 0.2 - - - - - - -
12/11:00am 19.9 ENE 8 11 1017.2 - 0.2 - - - - - - -
12/10:30am 19.8 ENE 8 10 1017.6 - 0.2 - - - - - - -
12/10:00am 18.3 ENE 7 10 1018.0 - 0.2 - - - - - - -
12/09:30am 17.9 NE 6 8 1018.2 - 0.2 - - - - - - -
12/09:00am 16.9 NE 3 4 1018.5 - 0.8 - - - - - - -
12/08:30am 16.6 NE 4 5 1018.4 - 0.8 - - - - - - -
12/08:00am 16.5 NE 4 6 1018.2 - 0.8 - - - - - - -
12/07:30am 16.1 NNE 3 5 1018.1 - 0.8 - - - - - - -
12/07:00am 16.0 NE 3 5 1017.8 - 0.8 - - - - - - -
12/06:30am 15.5 NE 5 6 1017.5 - 0.8 - - - - - - -
12/06:00am 15.3 NE 3 5 1017.5 - 0.8 - - - - - - -
12/05:30am 15.3 NE 2 3 1017.5 - 0.8 - - - - - - -
12/05:00am 15.0 NE 2 3 1017.5 - 0.8 - - - - - - -
12/04:30am 14.6 NE 2 4 1017.7 - 0.8 - - - - - - -
12/04:00am 14.9 NE 5 6 1017.7 - 0.8 - - - - - - -
12/03:30am 15.1 NE 3 5 1017.9 - 0.8 - - - - - - -
12/03:00am 15.0 NE 4 5 1018.0 - 0.8 Recent precip. - - - - - -
12/02:30am 14.8 NNE 5 6 1018.3 - 0.8 - - - - - - -
12/02:00am 14.9 NNE 4 5 1018.5 - 0.6 - - - - - - -
12/01:30am 14.8 NNE 2 4 1018.7 - 0.6 - - - - - - -
12/01:00am 14.7 NNE 2 3 1018.9 - 0.4 - - - - - - -
12/12:30am 15.2 NNE 6 8 1018.9 - 0.0 - - - - - - -
12/12:00am 17.2 E 6 8 1018.7 - 0.0 - - - - - - -
 
Date/Time
EDT
Temp

°C
Wind Pressure Rain
since 9am
mm
Weather Cloud Vis
km
Sea
Height
m
Swell
Dir
 
Speed
knots
Gust
knots
hPa Trend Height
m
Period
s
Dir
11/11:30pm 17.3 E 5 8 1018.7 - 0.0 - - - - - - -
11/11:00pm 17.3 E 6 8 1018.8 - 0.0 - - - - - - -
11/10:30pm 17.2 E 5 7 1018.9 - 0.0 - - - - - - -
11/10:00pm 17.3 E 6 8 1018.9 - 0.0 - - - - - - -
11/09:30pm 17.3 ENE 6 8 1018.6 - 0.0 - - - - - - -
11/09:00pm 17.3 E 4 6 1018.4 - 0.0 - - - - - - -
11/08:30pm 17.4 E 5 7 1018.0 - 0.0 - - - - - - -
11/08:00pm 17.6 E 6 7 1017.7 - 0.0 - - - - - - -
11/07:30pm 17.9 E 5 9 1017.3 - 0.0 - - - - - - -
11/07:00pm 18.1 ESE 8 10 1017.0 - 0.0 - - - - - - -
11/06:30pm 18.2 E 8 10 1016.9 - 0.0 - - - - - - -
11/06:00pm 18.8 E 5 7 1016.7 - 0.0 - - - - - - -
11/05:30pm 18.9 E 7 9 1016.5 - 0.0 - - - - - - -
11/05:00pm 19.2 ENE 5 8 1016.4 - 0.0 - - - - - - -
11/04:30pm 19.3 NE 9 13 1016.3 - 0.0 - - - - - - -
11/04:00pm 21.0 NE 11 15 1016.2 - 0.0 - - - - - - -
11/03:30pm 21.5 NE 8 12 1016.3 - 0.0 - - - - - - -
11/03:00pm 21.3 SSW 8 11 1016.2 - 0.0 - - - - - - -
11/02:30pm 21.2 SSW 6 8 1016.1 - 0.0 - - - - - - -
11/02:00pm 21.4 SSW 6 7 1016.2 - 0.0 - - - - - - -
11/01:30pm 20.3 SSW 6 8 1016.2 - 0.0 - - - - - - -
11/01:00pm 20.7 SW 6 7 1016.2 - 0.0 - - - - - - -
11/12:30pm 20.3 SW 5 7 1016.4 - 0.0 - - - - - - -
11/12:00pm 20.1 SW 4 5 1016.5 - 0.0 - - - - - - -
11/11:30am 19.4 SW 5 7 1016.6 - 0.0 - - - - - - -
11/11:00am 19.2 SW 7 9 1016.7 - 0.0 - - - - - - -
11/10:30am 19.3 SW 7 10 1016.8 - 0.0 - - - - - - -
11/10:00am 18.4 SW 9 12 1016.8 - 0.0 - - - - - - -
11/09:30am 18.6 SW 10 13 1016.5 - 0.0 - - - - - - -
11/09:00am 18.0 SSW 6 9 1016.2 - 0.0 - - - - - - -
11/08:30am 16.6 SSW 4 6 1016.0 - 0.0 - - - - - - -
11/08:00am 16.8 SSW 7 10 1015.6 - 0.0 - - - - - - -
11/07:30am 16.7 SSW 4 7 1015.4 - 0.0 - - - - - - -
11/07:00am 15.8 SSW 2 3 1015.0 - 0.0 - - - - - - -
11/06:30am 15.2 SSW 2 3 1014.7 - 0.0 - - - - - - -
11/06:00am 15.1 SSW 3 3 1014.5 - 0.0 - - - - - - -
11/05:30am 15.7 SSW 2 5 1014.1 - 0.0 - - - - - - -
11/05:00am 15.6 SSW 3 5 1013.9 - 0.0 - - - - - - -
11/04:30am 15.9 SSW 4 6 1013.7 - 0.0 - - - - - - -
11/04:00am 16.2 SSW 6 8 1013.7 - 0.0 - - - - - - -
11/03:30am 16.3 SSW 4 6 1013.7 - 0.0 - - - - - - -
11/03:00am 16.2 SSW 6 8 1013.8 - 0.0 - - - - - - -
11/02:30am 16.3 SSW 9 10 1013.8 - 0.0 - - - - - - -
11/02:00am 16.2 S 9 11 1013.9 - 0.0 - - - - - - -
11/01:30am 16.3 S 10 13 1013.7 - 0.0 - - - - - - -
11/01:00am 15.9 SSW 11 14 1013.8 - 0.0 - - - - - - -
11/12:30am 16.4 SSW 12 14 1013.6 - 0.0 - - - - - - -
11/12:00am 16.6 S 14 17 1013.4 - 0.0 - - - - - - -

Other Formats:

Comma delimited format used in spreadsheet applications
http://www.bom.gov.au/fwo/IDT60701/IDT60701.94951.axf

JavaScript Object Notation format (JSON) in row-major order
http://www.bom.gov.au/fwo/IDT60701/IDT60701.94951.json